sensor_id;sensor_type;location;lat;lon;timestamp;temperature;humidity
38606;DHT22;24365;48.446;8.850;2022-12-29T00:04:24;5.90;77.30
38606;DHT22;24365;48.446;8.850;2022-12-29T00:09:25;5.90;77.90
38606;DHT22;24365;48.446;8.850;2022-12-29T00:14:26;6.00;78.20
38606;DHT22;24365;48.446;8.850;2022-12-29T00:19:46;6.00;79.20
38606;DHT22;24365;48.446;8.850;2022-12-29T00:25:08;5.90;79.20
38606;DHT22;24365;48.446;8.850;2022-12-29T00:30:28;6.00;78.70
38606;DHT22;24365;48.446;8.850;2022-12-29T00:35:52;6.20;77.40
38606;DHT22;24365;48.446;8.850;2022-12-29T00:40:54;6.30;76.70
38606;DHT22;24365;48.446;8.850;2022-12-29T00:46:13;6.40;75.80
38606;DHT22;24365;48.446;8.850;2022-12-29T00:51:14;6.40;75.80
38606;DHT22;24365;48.446;8.850;2022-12-29T00:56:15;6.40;75.90
38606;DHT22;24365;48.446;8.850;2022-12-29T01:01:16;6.60;75.70
38606;DHT22;24365;48.446;8.850;2022-12-29T01:06:17;6.70;74.60
38606;DHT22;24365;48.446;8.850;2022-12-29T01:11:17;6.80;73.90
38606;DHT22;24365;48.446;8.850;2022-12-29T01:16:18;6.80;72.90
38606;DHT22;24365;48.446;8.850;2022-12-29T01:21:19;6.90;73.10
38606;DHT22;24365;48.446;8.850;2022-12-29T01:26:20;6.80;73.40
38606;DHT22;24365;48.446;8.850;2022-12-29T01:31:21;7.00;72.50
38606;DHT22;24365;48.446;8.850;2022-12-29T01:36:23;7.20;70.50
38606;DHT22;24365;48.446;8.850;2022-12-29T01:41:25;7.40;69.00
38606;DHT22;24365;48.446;8.850;2022-12-29T01:46:39;7.70;66.60
38606;DHT22;24365;48.446;8.850;2022-12-29T01:51:54;8.10;63.90
38606;DHT22;24365;48.446;8.850;2022-12-29T01:57:01;8.10;63.50
38606;DHT22;24365;48.446;8.850;2022-12-29T02:02:04;8.20;62.70
38606;DHT22;24365;48.446;8.850;2022-12-29T02:07:11;8.40;61.90
38606;DHT22;24365;48.446;8.850;2022-12-29T02:12:16;8.40;61.90
38606;DHT22;24365;48.446;8.850;2022-12-29T02:28:16;8.40;60.60
38606;DHT22;24365;48.446;8.850;2022-12-29T02:33:52;8.60;60.30
38606;DHT22;24365;48.446;8.850;2022-12-29T02:49:48;8.70;58.80
38606;DHT22;24365;48.446;8.850;2022-12-29T02:54:55;8.80;57.80
38606;DHT22;24365;48.446;8.850;2022-12-29T03:00:00;8.80;57.60
38606;DHT22;24365;48.446;8.850;2022-12-29T03:05:14;8.80;57.30
38606;DHT22;24365;48.446;8.850;2022-12-29T03:21:11;8.70;57.70
38606;DHT22;24365;48.446;8.850;2022-12-29T03:26:15;8.60;58.40
38606;DHT22;24365;48.446;8.850;2022-12-29T03:31:17;8.60;59.20
38606;DHT22;24365;48.446;8.850;2022-12-29T03:36:32;8.70;60.80
38606;DHT22;24365;48.446;8.850;2022-12-29T03:41:36;8.90;61.80
38606;DHT22;24365;48.446;8.850;2022-12-29T03:46:39;9.10;61.50
38606;DHT22;24365;48.446;8.850;2022-12-29T03:51:40;9.20;58.30
38606;DHT22;24365;48.446;8.850;2022-12-29T03:56:41;9.20;57.10
38606;DHT22;24365;48.446;8.850;2022-12-29T04:01:42;9.10;56.30
38606;DHT22;24365;48.446;8.850;2022-12-29T04:06:44;8.90;56.90
38606;DHT22;24365;48.446;8.850;2022-12-29T04:11:51;8.70;57.50
38606;DHT22;24365;48.446;8.850;2022-12-29T04:17:19;8.40;58.50
38606;DHT22;24365;48.446;8.850;2022-12-29T04:23:02;8.30;60.80
38606;DHT22;24365;48.446;8.850;2022-12-29T04:28:04;8.00;62.10
38606;DHT22;24365;48.446;8.850;2022-12-29T04:33:25;7.80;63.70
38606;DHT22;24365;48.446;8.850;2022-12-29T04:38:27;7.60;65.20
38606;DHT22;24365;48.446;8.850;2022-12-29T04:43:28;7.50;66.90
38606;DHT22;24365;48.446;8.850;2022-12-29T04:48:48;7.40;68.50
38606;DHT22;24365;48.446;8.850;2022-12-29T04:54:12;7.30;68.70
38606;DHT22;24365;48.446;8.850;2022-12-29T04:59:13;7.20;71.00
38606;DHT22;24365;48.446;8.850;2022-12-29T05:04:16;7.20;70.80
38606;DHT22;24365;48.446;8.850;2022-12-29T05:09:18;7.20;71.30
38606;DHT22;24365;48.446;8.850;2022-12-29T05:14:19;7.20;72.10
38606;DHT22;24365;48.446;8.850;2022-12-29T05:19:20;7.20;72.40
38606;DHT22;24365;48.446;8.850;2022-12-29T05:24:25;7.30;69.60
38606;DHT22;24365;48.446;8.850;2022-12-29T05:29:35;7.40;67.70
38606;DHT22;24365;48.446;8.850;2022-12-29T05:34:42;7.50;67.00
38606;DHT22;24365;48.446;8.850;2022-12-29T05:39:49;7.60;67.20
38606;DHT22;24365;48.446;8.850;2022-12-29T05:44:50;7.80;65.80
38606;DHT22;24365;48.446;8.850;2022-12-29T05:50:13;8.00;64.50
38606;DHT22;24365;48.446;8.850;2022-12-29T05:55:34;8.10;64.40
38606;DHT22;24365;48.446;8.850;2022-12-29T06:00:35;8.10;65.20
38606;DHT22;24365;48.446;8.850;2022-12-29T06:05:36;8.00;64.30
38606;DHT22;24365;48.446;8.850;2022-12-29T06:10:37;8.20;64.30
38606;DHT22;24365;48.446;8.850;2022-12-29T06:15:40;8.20;63.90
38606;DHT22;24365;48.446;8.850;2022-12-29T06:21:08;8.20;64.90
38606;DHT22;24365;48.446;8.850;2022-12-29T06:26:10;8.20;63.70
38606;DHT22;24365;48.446;8.850;2022-12-29T06:31:12;8.30;64.00
38606;DHT22;24365;48.446;8.850;2022-12-29T06:36:14;8.30;65.10
38606;DHT22;24365;48.446;8.850;2022-12-29T06:41:14;8.30;65.40
38606;DHT22;24365;48.446;8.850;2022-12-29T06:46:34;8.20;66.80
38606;DHT22;24365;48.446;8.850;2022-12-29T06:51:35;8.10;68.00
38606;DHT22;24365;48.446;8.850;2022-12-29T06:56:36;8.00;68.80
38606;DHT22;24365;48.446;8.850;2022-12-29T07:01:36;8.10;69.80
38606;DHT22;24365;48.446;8.850;2022-12-29T07:06:37;8.20;69.10
38606;DHT22;24365;48.446;8.850;2022-12-29T07:11:38;8.30;69.20
38606;DHT22;24365;48.446;8.850;2022-12-29T07:16:39;8.40;68.30
38606;DHT22;24365;48.446;8.850;2022-12-29T07:21:40;8.40;68.40
38606;DHT22;24365;48.446;8.850;2022-12-29T07:26:55;8.20;68.70
38606;DHT22;24365;48.446;8.850;2022-12-29T07:32:41;8.10;69.80
38606;DHT22;24365;48.446;8.850;2022-12-29T07:37:41;8.10;70.20
38606;DHT22;24365;48.446;8.850;2022-12-29T07:42:42;8.30;69.60
38606;DHT22;24365;48.446;8.850;2022-12-29T07:47:47;8.30;69.30
38606;DHT22;24365;48.446;8.850;2022-12-29T07:52:52;8.30;70.20
38606;DHT22;24365;48.446;8.850;2022-12-29T07:58:31;8.20;70.30
38606;DHT22;24365;48.446;8.850;2022-12-29T08:03:50;8.30;70.90
38606;DHT22;24365;48.446;8.850;2022-12-29T08:08:51;8.40;70.50
38606;DHT22;24365;48.446;8.850;2022-12-29T08:13:52;8.40;71.30
38606;DHT22;24365;48.446;8.850;2022-12-29T08:18:53;8.50;71.50
38606;DHT22;24365;48.446;8.850;2022-12-29T08:23:54;8.40;71.60
38606;DHT22;24365;48.446;8.850;2022-12-29T08:29:14;8.60;70.50
38606;DHT22;24365;48.446;8.850;2022-12-29T08:35:12;8.60;71.00
38606;DHT22;24365;48.446;8.850;2022-12-29T08:40:13;8.90;68.80
38606;DHT22;24365;48.446;8.850;2022-12-29T08:45:14;9.10;66.00
38606;DHT22;24365;48.446;8.850;2022-12-29T08:50:15;9.40;63.30
38606;DHT22;24365;48.446;8.850;2022-12-29T08:55:16;9.60;61.80
38606;DHT22;24365;48.446;8.850;2022-12-29T09:00:17;9.70;61.00
38606;DHT22;24365;48.446;8.850;2022-12-29T09:05:18;9.60;61.80
38606;DHT22;24365;48.446;8.850;2022-12-29T09:10:19;9.70;60.40
38606;DHT22;24365;48.446;8.850;2022-12-29T09:15:20;9.90;59.60
38606;DHT22;24365;48.446;8.850;2022-12-29T09:20:40;10.10;60.10
38606;DHT22;24365;48.446;8.850;2022-12-29T09:25:41;10.10;60.00
38606;DHT22;24365;48.446;8.850;2022-12-29T09:30:43;10.10;61.40
38606;DHT22;24365;48.446;8.850;2022-12-29T09:35:45;10.20;61.20
38606;DHT22;24365;48.446;8.850;2022-12-29T09:40:52;10.20;61.40
38606;DHT22;24365;48.446;8.850;2022-12-29T09:52:20;10.20;62.80
38606;DHT22;24365;48.446;8.850;2022-12-29T10:02:40;10.20;62.90
38606;DHT22;24365;48.446;8.850;2022-12-29T10:07:45;10.20;62.70
38606;DHT22;24365;48.446;8.850;2022-12-29T10:13:00;10.30;63.90
38606;DHT22;24365;48.446;8.850;2022-12-29T10:23:24;10.50;61.60
38606;DHT22;24365;48.446;8.850;2022-12-29T10:28:38;10.40;62.80
38606;DHT22;24365;48.446;8.850;2022-12-29T10:33:42;10.40;61.70
38606;DHT22;24365;48.446;8.850;2022-12-29T10:44:10;10.60;62.40
38606;DHT22;24365;48.446;8.850;2022-12-29T10:49:17;10.60;62.70
38606;DHT22;24365;48.446;8.850;2022-12-29T10:54:22;10.60;63.10
38606;DHT22;24365;48.446;8.850;2022-12-29T10:59:27;10.60;63.10
38606;DHT22;24365;48.446;8.850;2022-12-29T11:09:46;10.60;64.00
38606;DHT22;24365;48.446;8.850;2022-12-29T11:14:50;10.60;63.90
38606;DHT22;24365;48.446;8.850;2022-12-29T11:25:27;10.60;67.40
38606;DHT22;24365;48.446;8.850;2022-12-29T11:30:30;10.70;67.90
38606;DHT22;24365;48.446;8.850;2022-12-29T11:35:35;10.70;69.50
38606;DHT22;24365;48.446;8.850;2022-12-29T11:40:41;10.80;71.00
38606;DHT22;24365;48.446;8.850;2022-12-29T11:45:45;11.00;70.20
38606;DHT22;24365;48.446;8.850;2022-12-29T11:50:55;10.90;70.40
38606;DHT22;24365;48.446;8.850;2022-12-29T11:56:06;10.80;71.40
38606;DHT22;24365;48.446;8.850;2022-12-29T12:01:22;10.80;71.50
38606;DHT22;24365;48.446;8.850;2022-12-29T12:06:27;10.80;72.50
38606;DHT22;24365;48.446;8.850;2022-12-29T12:11:38;10.90;72.10
38606;DHT22;24365;48.446;8.850;2022-12-29T12:17:25;10.90;74.30
38606;DHT22;24365;48.446;8.850;2022-12-29T12:22:32;10.70;76.60
38606;DHT22;24365;48.446;8.850;2022-12-29T12:27:47;10.60;79.20
38606;DHT22;24365;48.446;8.850;2022-12-29T12:33:05;10.50;80.90
38606;DHT22;24365;48.446;8.850;2022-12-29T12:43:45;10.50;83.00
38606;DHT22;24365;48.446;8.850;2022-12-29T12:55:06;10.50;82.40
38606;DHT22;24365;48.446;8.850;2022-12-29T13:00:13;10.40;82.80
38606;DHT22;24365;48.446;8.850;2022-12-29T13:16:05;10.60;80.60
38606;DHT22;24365;48.446;8.850;2022-12-29T13:21:27;10.70;80.00
38606;DHT22;24365;48.446;8.850;2022-12-29T13:26:50;10.80;81.10
38606;DHT22;24365;48.446;8.850;2022-12-29T13:32:06;10.90;78.90
38606;DHT22;24365;48.446;8.850;2022-12-29T13:37:18;11.00;76.80
38606;DHT22;24365;48.446;8.850;2022-12-29T13:42:19;11.00;74.80
38606;DHT22;24365;48.446;8.850;2022-12-29T13:47:35;11.10;73.90
38606;DHT22;24365;48.446;8.850;2022-12-29T14:03:48;11.40;73.40
38606;DHT22;24365;48.446;8.850;2022-12-29T14:09:04;11.50;70.00
38606;DHT22;24365;48.446;8.850;2022-12-29T14:14:25;11.50;69.10
38606;DHT22;24365;48.446;8.850;2022-12-29T14:19:40;11.40;70.50
38606;DHT22;24365;48.446;8.850;2022-12-29T14:24:44;11.20;68.40
38606;DHT22;24365;48.446;8.850;2022-12-29T14:29:48;11.10;68.90
38606;DHT22;24365;48.446;8.850;2022-12-29T14:34:59;11.10;66.80
38606;DHT22;24365;48.446;8.850;2022-12-29T14:40:24;11.20;66.20
38606;DHT22;24365;48.446;8.850;2022-12-29T14:45:27;11.10;66.00
38606;DHT22;24365;48.446;8.850;2022-12-29T14:50:40;11.10;65.00
38606;DHT22;24365;48.446;8.850;2022-12-29T14:55:54;11.00;64.10
38606;DHT22;24365;48.446;8.850;2022-12-29T15:00:56;10.90;64.90
38606;DHT22;24365;48.446;8.850;2022-12-29T15:06:08;10.70;65.90
38606;DHT22;24365;48.446;8.850;2022-12-29T15:16:30;10.50;67.20
38606;DHT22;24365;48.446;8.850;2022-12-29T15:21:33;10.40;66.60
38606;DHT22;24365;48.446;8.850;2022-12-29T15:26:44;10.30;67.70
38606;DHT22;24365;48.446;8.850;2022-12-29T15:31:46;10.30;67.80
38606;DHT22;24365;48.446;8.850;2022-12-29T15:36:50;10.30;66.40
38606;DHT22;24365;48.446;8.850;2022-12-29T15:41:56;10.40;67.00
38606;DHT22;24365;48.446;8.850;2022-12-29T15:47:22;10.30;66.70
38606;DHT22;24365;48.446;8.850;2022-12-29T15:52:23;10.10;67.60
38606;DHT22;24365;48.446;8.850;2022-12-29T15:57:28;9.90;69.50
38606;DHT22;24365;48.446;8.850;2022-12-29T16:02:29;9.80;69.10
38606;DHT22;24365;48.446;8.850;2022-12-29T16:07:31;9.70;70.60
38606;DHT22;24365;48.446;8.850;2022-12-29T16:12:35;9.50;72.30
38606;DHT22;24365;48.446;8.850;2022-12-29T16:17:47;9.50;71.90
38606;DHT22;24365;48.446;8.850;2022-12-29T16:22:54;9.30;73.00
38606;DHT22;24365;48.446;8.850;2022-12-29T16:27:56;9.20;73.90
38606;DHT22;24365;48.446;8.850;2022-12-29T16:33:02;9.10;75.10
38606;DHT22;24365;48.446;8.850;2022-12-29T16:38:15;9.10;76.30
38606;DHT22;24365;48.446;8.850;2022-12-29T16:43:35;9.00;75.80
38606;DHT22;24365;48.446;8.850;2022-12-29T16:48:54;8.80;77.10
38606;DHT22;24365;48.446;8.850;2022-12-29T16:53:55;8.70;78.00
38606;DHT22;24365;48.446;8.850;2022-12-29T16:59:08;8.70;78.10
38606;DHT22;24365;48.446;8.850;2022-12-29T17:04:17;8.60;78.00
38606;DHT22;24365;48.446;8.850;2022-12-29T17:09:26;8.60;78.60
38606;DHT22;24365;48.446;8.850;2022-12-29T17:15:06;8.40;78.90
38606;DHT22;24365;48.446;8.850;2022-12-29T17:20:22;8.30;79.70
38606;DHT22;24365;48.446;8.850;2022-12-29T17:25:33;8.30;79.80
38606;DHT22;24365;48.446;8.850;2022-12-29T17:30:34;8.20;79.70
38606;DHT22;24365;48.446;8.850;2022-12-29T17:35:36;8.10;81.50
38606;DHT22;24365;48.446;8.850;2022-12-29T17:40:37;8.10;81.10
38606;DHT22;24365;48.446;8.850;2022-12-29T17:45:39;8.00;82.00
38606;DHT22;24365;48.446;8.850;2022-12-29T17:50:40;7.90;82.20
38606;DHT22;24365;48.446;8.850;2022-12-29T17:55:42;7.90;82.20
38606;DHT22;24365;48.446;8.850;2022-12-29T18:00:43;7.80;83.10
38606;DHT22;24365;48.446;8.850;2022-12-29T18:05:44;7.70;83.60
38606;DHT22;24365;48.446;8.850;2022-12-29T18:10:45;7.80;83.40
38606;DHT22;24365;48.446;8.850;2022-12-29T18:15:46;7.70;83.50
38606;DHT22;24365;48.446;8.850;2022-12-29T18:20:51;7.70;83.80
38606;DHT22;24365;48.446;8.850;2022-12-29T18:26:01;7.60;84.40
38606;DHT22;24365;48.446;8.850;2022-12-29T18:31:33;7.60;83.50
38606;DHT22;24365;48.446;8.850;2022-12-29T18:36:40;7.60;84.00
38606;DHT22;24365;48.446;8.850;2022-12-29T18:41:46;7.50;84.30
38606;DHT22;24365;48.446;8.850;2022-12-29T18:46:53;7.40;84.20
38606;DHT22;24365;48.446;8.850;2022-12-29T18:51:59;7.30;84.90
38606;DHT22;24365;48.446;8.850;2022-12-29T18:57:03;7.30;85.30
38606;DHT22;24365;48.446;8.850;2022-12-29T19:02:17;7.30;85.80
38606;DHT22;24365;48.446;8.850;2022-12-29T19:07:23;7.30;86.30
38606;DHT22;24365;48.446;8.850;2022-12-29T19:12:46;7.30;86.00
38606;DHT22;24365;48.446;8.850;2022-12-29T19:17:54;7.20;86.00
38606;DHT22;24365;48.446;8.850;2022-12-29T19:23:00;7.30;85.70
38606;DHT22;24365;48.446;8.850;2022-12-29T19:28:18;7.20;85.50
38606;DHT22;24365;48.446;8.850;2022-12-29T19:33:25;7.20;85.80
38606;DHT22;24365;48.446;8.850;2022-12-29T19:39:16;7.10;85.80
38606;DHT22;24365;48.446;8.850;2022-12-29T19:44:20;7.10;85.70
38606;DHT22;24365;48.446;8.850;2022-12-29T19:49:22;7.10;86.80
38606;DHT22;24365;48.446;8.850;2022-12-29T19:54:23;7.00;87.60
38606;DHT22;24365;48.446;8.850;2022-12-29T19:59:24;7.00;87.20
38606;DHT22;24365;48.446;8.850;2022-12-29T20:04:24;7.00;87.20
38606;DHT22;24365;48.446;8.850;2022-12-29T20:09:25;7.00;87.50
38606;DHT22;24365;48.446;8.850;2022-12-29T20:14:26;7.00;89.00
38606;DHT22;24365;48.446;8.850;2022-12-29T20:19:27;7.40;88.50
38606;DHT22;24365;48.446;8.850;2022-12-29T20:24:31;7.50;85.80
38606;DHT22;24365;48.446;8.850;2022-12-29T20:29:37;7.60;86.10
38606;DHT22;24365;48.446;8.850;2022-12-29T20:34:39;7.60;86.10
38606;DHT22;24365;48.446;8.850;2022-12-29T20:39:41;7.50;86.60
38606;DHT22;24365;48.446;8.850;2022-12-29T20:44:42;7.40;87.30
38606;DHT22;24365;48.446;8.850;2022-12-29T20:49:43;7.40;88.30
38606;DHT22;24365;48.446;8.850;2022-12-29T20:54:44;7.30;88.80
38606;DHT22;24365;48.446;8.850;2022-12-29T20:59:45;7.40;89.00
38606;DHT22;24365;48.446;8.850;2022-12-29T21:04:46;7.30;89.50
